Time;durP1;ratioP1;P1;durP2;ratioP2;P2;SDS_P1;SDS_P2;PMS_P1;PMS_P2;Temp;Humidity;BMP_temperature;BMP_pressure;BME280_temperature;BME280_humidity;BME280_pressure;Samples;Min_cycle;Max_cycle;Signal;HPM_P1;HPM_P2
2023/10/18 00:00:34;;;;;;;;;;;;;;;5.91;100.00;101237.00;5090539;28;19916;-91
2023/10/18 00:03:01;;;;;;;;;;;;;;;5.89;100.00;101241.22;5090210;28;20007;-90
2023/10/18 00:05:26;;;;;;;;;;;;;;;5.90;100.00;101235.19;5091475;28;20017;-90
2023/10/18 00:07:52;;;;;;;;;;;;;;;5.86;100.00;101225.50;5081197;28;19951;-90
2023/10/18 00:10:17;;;;;;;;;;;;;;;5.85;100.00;101225.44;5075472;28;19916;-91
2023/10/18 00:12:44;;;;;;;;;;;;;;;5.84;100.00;101231.44;5093853;28;19956;-91
2023/10/18 00:15:11;;;;;;;;;;;;;;;5.83;100.00;101224.50;5075458;28;19920;-90
2023/10/18 00:17:37;;;;;;;;;;;;;;;5.83;100.00;101221.91;5093861;28;19912;-91
2023/10/18 00:20:47;;;;;;;;;;;;;;;5.82;100.00;101226.22;5075490;28;19912;-91
2023/10/18 00:22:54;;;;;;;;;;;;;;;5.83;100.00;101220.19;5085127;28;19951;-91
2023/10/18 00:25:20;;;;;;;;;;;;;;;5.80;100.00;101219.19;5075352;28;19912;-90
2023/10/18 00:27:45;;;;;;;;;;;;;;;5.82;100.00;101217.53;5075599;28;19912;-91
2023/10/18 00:30:11;;;;;;;;;;;;;;;5.78;100.00;101221.69;5093280;28;19923;-91
2023/10/18 00:32:36;;;;;;;;;;;;;;;5.77;100.00;101214.75;5093673;28;19920;-90
2023/10/18 00:35:12;;;;;;;;;;;;;;;5.76;100.00;101207.78;5092203;28;19969;-91
2023/10/18 00:37:38;;;;;;;;;;;;;;;5.78;100.00;101210.44;5092237;28;19916;-90
2023/10/18 00:40:07;;;;;;;;;;;;;;;5.80;100.00;101214.00;5092046;28;19912;-91
2023/10/18 00:42:35;;;;;;;;;;;;;;;5.80;100.00;101219.19;5091985;28;19919;-91
2023/10/18 00:45:08;;;;;;;;;;;;;;;5.77;100.00;101214.75;5091758;28;20306;-90
2023/10/18 00:47:34;;;;;;;;;;;;;;;5.78;100.00;101218.19;5091900;28;19966;-90
2023/10/18 00:49:59;;;;;;;;;;;;;;;5.77;100.00;101212.16;5075504;28;19916;-90
2023/10/18 00:52:26;;;;;;;;;;;;;;;5.77;100.00;101214.75;5074925;28;20390;-90
2023/10/18 00:54:52;;;;;;;;;;;;;;;5.74;100.00;101207.72;5074982;28;20297;-90
2023/10/18 00:57:24;;;;;;;;;;;;;;;5.73;100.00;101203.34;5091549;28;20362;-90
2023/10/18 00:59:51;;;;;;;;;;;;;;;5.72;100.00;101205.84;5075120;28;19954;-90
2023/10/18 01:02:19;;;;;;;;;;;;;;;5.68;100.00;101198.78;5093124;28;19948;-90
2023/10/18 01:04:46;;;;;;;;;;;;;;;5.67;100.00;101197.00;5093048;28;19935;-90
2023/10/18 01:07:13;;;;;;;;;;;;;;;5.65;100.00;101190.84;5091598;28;19912;-91
2023/10/18 01:09:43;;;;;;;;;;;;;;;5.64;100.00;101179.63;5091165;28;19923;-90
2023/10/18 01:12:09;;;;;;;;;;;;;;;5.63;100.00;101179.56;5074570;28;20551;-91
2023/10/18 01:14:35;;;;;;;;;;;;;;;5.63;100.00;101176.97;5091113;28;19912;-91
2023/10/18 01:17:01;;;;;;;;;;;;;;;5.61;100.00;101173.44;5114439;27;19927;-90
2023/10/18 01:19:26;;;;;;;;;;;;;;;5.58;100.00;101169.00;5092539;28;19920;-90
2023/10/18 01:21:52;;;;;;;;;;;;;;;5.56;100.00;101166.34;5091010;28;20413;-90
2023/10/18 01:24:18;;;;;;;;;;;;;;;5.55;100.00;101161.09;5091001;28;19916;-90
2023/10/18 01:26:44;;;;;;;;;;;;;;;5.54;100.00;101157.59;5092507;28;19919;-90
2023/10/18 01:29:09;;;;;;;;;;;;;;;5.53;100.00;101152.38;5091031;28;19912;-91
2023/10/18 01:31:36;;;;;;;;;;;;;;;5.53;100.00;101152.38;5090973;28;19947;-90
2023/10/18 01:34:03;;;;;;;;;;;;;;;5.51;100.00;101144.53;5092512;28;19924;-90
2023/10/18 01:36:31;;;;;;;;;;;;;;;5.57;100.00;101147.41;5064387;28;19916;-90
2023/10/18 01:38:57;;;;;;;;;;;;;;;5.52;100.00;101148.91;5090919;28;19912;-90
2023/10/18 01:41:25;;;;;;;;;;;;;;;5.50;100.00;101128.97;5092305;28;20552;-90
2023/10/18 01:43:51;;;;;;;;;;;;;;;5.50;100.00;101137.59;5081018;28;19918;-90
2023/10/18 01:46:17;;;;;;;;;;;;;;;5.52;100.00;101130.81;5073671;28;19912;-90
2023/10/18 01:48:50;;;;;;;;;;;;;;;5.51;100.00;101125.56;5091989;28;19952;-90
2023/10/18 01:51:15;;;;;;;;;;;;;;;5.49;100.00;101120.34;5090341;28;20419;-90
2023/10/18 01:53:43;;;;;;;;;;;;;;;5.49;100.00;101114.25;5073988;28;19912;-90
2023/10/18 01:56:08;;;;;;;;;;;;;;;5.49;100.00;101103.91;5123679;27;19919;-90
2023/10/18 01:58:35;;;;;;;;;;;;;;;5.47;100.00;101098.69;5090598;28;19912;-89
2023/10/18 02:01:02;;;;;;;;;;;;;;;5.48;100.00;101109.94;5090518;28;20371;-90
2023/10/18 02:03:28;;;;;;;;;;;;;;;5.46;100.00;101104.69;5090458;28;19923;-91
2023/10/18 02:05:54;;;;;;;;;;;;;;;5.45;100.00;101102.03;5090248;28;19947;-90
2023/10/18 02:08:20;;;;;;;;;;;;;;;5.47;100.00;101097.81;5090255;28;19958;-91
2023/10/18 02:10:46;;;;;;;;;;;;;;;5.45;100.00;101094.28;5090233;28;19924;-91
2023/10/18 02:13:15;;;;;;;;;;;;;;;5.45;100.00;101092.56;5090210;28;19912;-90
2023/10/18 02:15:40;;;;;;;;;;;;;;;5.47;100.00;101096.09;5090005;28;20433;-91
2023/10/18 02:18:09;;;;;;;;;;;;;;;5.55;100.00;101094.78;5090393;28;19920;-90
2023/10/18 02:20:36;;;;;;;;;;;;;;;5.50;100.00;101091.06;5091328;28;19915;-91
2023/10/18 02:23:01;;;;;;;;;;;;;;;5.50;100.00;101087.59;5091304;28;19920;-90
2023/10/18 02:28:27;;;;;;;;;;;;;;;5.44;100.00;101083.03;5068439;28;20510;-90
2023/10/18 02:30:57;;;;;;;;;;;;;;;5.43;100.00;101078.69;5087528;28;20285;-90
2023/10/18 02:33:44;;;;;;;;;;;;;;;5.43;100.00;101078.69;5069384;28;19999;-90
2023/10/18 02:36:52;;;;;;;;;;;;;;;5.40;100.00;101073.34;5070978;28;19916;-90
2023/10/18 02:38:59;;;;;;;;;;;;;;;5.42;100.00;101079.50;5054441;28;19962;-90
2023/10/18 02:41:27;;;;;;;;;;;;;;;5.41;100.00;101077.72;5069390;28;19917;-91
2023/10/18 02:43:55;;;;;;;;;;;;;;;5.42;100.00;101076.00;5069668;28;19912;-90
2023/10/18 02:46:23;;;;;;;;;;;;;;;5.39;100.00;101066.44;5070860;28;19935;-91
2023/10/18 02:48:50;;;;;;;;;;;;;;;5.38;100.00;101064.66;5072375;28;20367;-90
2023/10/18 02:51:15;;;;;;;;;;;;;;;5.36;100.00;101066.28;5070871;28;20011;-91
2023/10/18 02:53:41;;;;;;;;;;;;;;;5.34;100.00;101063.59;5070646;28;20018;-90
2023/10/18 02:56:06;;;;;;;;;;;;;;;5.38;100.00;101062.06;5085863;28;20340;-90
2023/10/18 02:58:33;;;;;;;;;;;;;;;5.34;100.00;101055.84;5069394;28;19979;-90
2023/10/18 03:01:05;;;;;;;;;;;;;;;5.37;100.00;101052.53;5069329;28;19957;-90
2023/10/18 03:03:31;;;;;;;;;;;;;;;5.35;100.00;101047.31;5070687;28;19920;-90
2023/10/18 03:05:58;;;;;;;;;;;;;;;5.36;100.00;101043.03;5069534;28;19912;-90
2023/10/18 03:08:23;;;;;;;;;;;;;;;5.34;100.00;101042.94;5071827;28;19919;-90
2023/10/18 03:10:51;;;;;;;;;;;;;;;5.34;100.00;101040.34;5106622;28;20301;-90
2023/10/18 03:13:18;;;;;;;;;;;;;;;5.36;100.00;101036.16;5106388;28;20381;-90
2023/10/18 03:18:27;;;;;;;;;;;;;;;5.29;100.00;101022.88;5070947;28;20005;-90
2023/10/18 03:20:58;;;;;;;;;;;;;;;5.31;100.00;101034.16;5079540;28;19994;-89
2023/10/18 03:23:26;;;;;;;;;;;;;;;5.25;100.00;101020.97;5104021;28;19919;-90
2023/10/18 03:26:03;;;;;;;;;;;;;;;5.25;100.00;101023.53;5069110;28;19912;-90
2023/10/18 03:28:34;;;;;;;;;;;;;;;5.25;100.00;101024.41;5068921;28;19916;-90
2023/10/18 03:31:00;;;;;;;;;;;;;;;5.24;100.00;101020.06;5089236;28;20459;-90
2023/10/18 03:33:28;;;;;;;;;;;;;;;5.25;100.00;101016.66;5098089;28;20397;-90
2023/10/18 03:36:06;;;;;;;;;;;;;;;5.26;100.00;101010.69;5090672;28;19919;-91
2023/10/18 03:38:39;;;;;;;;;;;;;;;5.27;100.00;101009.91;5090274;28;19919;-90
2023/10/18 03:41:07;;;;;;;;;;;;;;;5.27;100.00;101007.31;5094663;28;19919;-90
2023/10/18 03:43:36;;;;;;;;;;;;;;;5.27;100.00;100999.56;5093009;28;19912;-90
2023/10/18 03:46:38;;;;;;;;;;;;;;;5.21;100.00;100989.81;5118620;27;19916;-91
2023/10/18 03:48:54;;;;;;;;;;;;;;;5.19;100.00;100990.56;5094100;28;19939;-90
2023/10/18 03:51:23;;;;;;;;;;;;;;;5.19;100.00;100985.38;5093991;28;20385;-90
2023/10/18 03:53:52;;;;;;;;;;;;;;;5.23;100.00;100977.84;5080562;28;20379;-89
2023/10/18 03:56:19;;;;;;;;;;;;;;;5.23;100.00;100975.28;5093928;28;19916;-90
2023/10/18 03:58:49;;;;;;;;;;;;;;;5.27;100.00;100968.56;5094212;28;19916;-92
2023/10/18 04:01:19;;;;;;;;;;;;;;;5.25;100.00;100970.16;5087120;28;19912;-91
2023/10/18 04:03:45;;;;;;;;;;;;;;;5.25;100.00;100972.75;5094079;28;19919;-91
2023/10/18 04:06:21;;;;;;;;;;;;;;;5.25;100.00;100962.41;5081572;28;19944;-90
2023/10/18 04:08:46;;;;;;;;;;;;;;;5.25;100.00;100962.41;5093704;28;19920;-90
2023/10/18 04:11:11;;;;;;;;;;;;;;;5.29;100.00;100960.88;5093554;28;19938;-90
2023/10/18 04:13:38;;;;;;;;;;;;;;;5.24;100.00;100958.06;5092582;28;19919;-90
2023/10/18 04:16:28;;;;;;;;;;;;;;;5.24;100.00;100950.31;5092883;28;19916;-91
2023/10/18 04:18:51;;;;;;;;;;;;;;;5.26;100.00;100948.69;5093782;28;19999;-90
2023/10/18 04:21:22;;;;;;;;;;;;;;;5.30;100.00;100948.03;5079965;28;20330;-90
2023/10/18 04:23:49;;;;;;;;;;;;;;;5.27;100.00;100939.25;5086664;28;19912;-90
2023/10/18 04:26:18;;;;;;;;;;;;;;;5.30;100.00;100941.97;5075240;28;19912;-91
2023/10/18 04:28:45;;;;;;;;;;;;;;;5.31;100.00;100936.00;5075714;28;19995;-91
2023/10/18 04:31:11;;;;;;;;;;;;;;;5.30;100.00;100935.13;5121108;27;19916;-91
2023/10/18 04:33:45;;;;;;;;;;;;;;;5.31;100.00;100925.66;5092043;28;19920;-91
2023/10/18 04:36:11;;;;;;;;;;;;;;;5.31;100.00;100925.66;5091806;28;19962;-90
2023/10/18 04:38:42;;;;;;;;;;;;;;;5.31;100.00;100923.06;5091910;28;20404;-90
2023/10/18 04:41:08;;;;;;;;;;;;;;;5.31;100.00;100916.19;5093318;28;19914;-90
2023/10/18 04:43:34;;;;;;;;;;;;;;;5.32;100.00;100907.63;5093509;28;19919;-90
2023/10/18 04:46:04;;;;;;;;;;;;;;;5.36;100.00;100913.84;5074876;28;19927;-90
2023/10/18 04:51:28;;;;;;;;;;;;;;;5.34;100.00;100911.16;5092065;28;19927;-90
2023/10/18 04:54:00;;;;;;;;;;;;;;;5.33;100.00;100908.50;5083531;28;19951;-90
2023/10/18 04:56:33;;;;;;;;;;;;;;;5.40;100.00;100901.13;5092858;28;19912;-90
2023/10/18 05:04:29;;;;;;;;;;;;;;;5.38;100.00;100900.16;5092819;28;19919;-90
2023/10/18 05:07:01;;;;;;;;;;;;;;;5.35;100.00;100893.97;5074622;28;20321;-90
2023/10/18 05:09:30;;;;;;;;;;;;;;;5.38;100.00;100889.81;5074194;28;19924;-90
2023/10/18 05:11:57;;;;;;;;;;;;;;;5.35;100.00;100884.53;5092778;28;19923;-91
2023/10/18 05:14:35;;;;;;;;;;;;;;;5.35;100.00;100881.06;5092566;28;19962;-91
2023/10/18 05:17:01;;;;;;;;;;;;;;;5.33;100.00;100875.84;5074599;28;20298;-89
2023/10/18 05:19:31;;;;;;;;;;;;;;;5.39;100.00;100881.25;5074407;28;19929;-91
2023/10/18 05:21:56;;;;;;;;;;;;;;;5.39;100.00;100876.09;5074585;28;20388;-91
2023/10/18 05:24:21;;;;;;;;;;;;;;;5.40;100.00;100877.88;5074256;28;20410;-91
2023/10/18 05:26:53;;;;;;;;;;;;;;;5.38;100.00;100879.50;5114659;27;19919;-91
2023/10/18 05:29:19;;;;;;;;;;;;;;;5.39;100.00;100877.81;5090932;28;19963;-90
2023/10/18 05:32:05;;;;;;;;;;;;;;;5.39;100.00;100872.63;5091021;28;19944;-90
2023/10/18 05:34:48;;;;;;;;;;;;;;;5.40;100.00;100875.28;5091884;28;19966;-90
2023/10/18 05:37:14;;;;;;;;;;;;;;;5.40;100.00;100882.13;5073976;28;19916;-90
2023/10/18 05:39:49;;;;;;;;;;;;;;;5.40;100.00;100872.72;5074276;28;19995;-90
2023/10/18 05:42:20;;;;;;;;;;;;;;;5.43;100.00;100871.06;5084817;28;19916;-90
2023/10/18 05:44:47;;;;;;;;;;;;;;;5.43;100.00;100871.97;5086194;28;20308;-90
2023/10/18 05:47:13;;;;;;;;;;;;;;;5.39;100.00;100863.19;5073688;28;19918;-90
2023/10/18 05:49:41;;;;;;;;;;;;;;;5.42;100.00;100854.69;5092013;28;19966;-91
2023/10/18 05:54:34;;;;;;;;;;;;;;;5.40;100.00;100853.72;5092096;28;20010;-91
2023/10/18 05:57:00;;;;;;;;;;;;;;;5.39;100.00;100852.84;5073608;28;19948;-91
2023/10/18 06:01:53;;;;;;;;;;;;;;;5.42;100.00;100851.19;5091904;28;20364;-90
2023/10/18 06:04:25;;;;;;;;;;;;;;;5.42;100.00;100849.53;5075061;28;19976;-90
2023/10/18 06:07:09;;;;;;;;;;;;;;;5.41;100.00;100850.31;5090418;28;20421;-90
2023/10/18 06:09:46;;;;;;;;;;;;;;;5.43;100.00;100847.81;5090230;28;19916;-91
2023/10/18 06:12:15;;;;;;;;;;;;;;;5.43;100.00;100847.81;5090290;28;19916;-90
2023/10/18 06:14:41;;;;;;;;;;;;;;;5.45;100.00;100839.31;5091778;28;19913;-90
2023/10/18 06:17:08;;;;;;;;;;;;;;;5.42;100.00;100840.88;5090127;28;19923;-89
2023/10/18 06:19:36;;;;;;;;;;;;;;;5.40;100.00;100839.13;5090072;28;20412;-90
2023/10/18 06:22:13;;;;;;;;;;;;;;;5.39;100.00;100829.59;5091442;28;19951;-90
2023/10/18 06:24:38;;;;;;;;;;;;;;;5.42;100.00;100827.94;5091406;28;19957;-90
2023/10/18 06:27:04;;;;;;;;;;;;;;;5.40;100.00;100820.13;5091478;28;19916;-90
2023/10/18 06:29:31;;;;;;;;;;;;;;;5.39;100.00;100811.50;5089947;28;19916;-90
2023/10/18 06:31:58;;;;;;;;;;;;;;;5.44;100.00;100816.00;5090533;28;21476;-91
2023/10/18 06:34:24;;;;;;;;;;;;;;;5.45;100.00;100813.47;5086293;28;19963;-90
2023/10/18 06:36:52;;;;;;;;;;;;;;;5.46;100.00;100809.19;5073043;28;19916;-90
2023/10/18 06:39:24;;;;;;;;;;;;;;;5.53;100.00;100806.03;5072959;28;20341;-90
2023/10/18 06:41:54;;;;;;;;;;;;;;;5.50;100.00;100805.91;5072693;28;19912;-90
2023/10/18 06:44:19;;;;;;;;;;;;;;;5.50;100.00;100800.75;5110858;27;19923;-90
2023/10/18 06:46:47;;;;;;;;;;;;;;;5.50;100.00;100800.75;5089904;28;19912;-90
2023/10/18 06:49:12;;;;;;;;;;;;;;;5.54;100.00;100797.47;5062809;28;19912;-89
2023/10/18 06:51:40;;;;;;;;;;;;;;;5.54;100.00;100800.06;5091022;28;20294;-90
2023/10/18 06:54:10;;;;;;;;;;;;;;;5.57;100.00;100793.31;5090859;28;20044;-90
2023/10/18 06:56:45;;;;;;;;;;;;;;;5.57;100.00;100788.16;5091023;28;19916;-90
2023/10/18 06:59:10;;;;;;;;;;;;;;;5.60;100.00;100792.56;5063056;28;19918;-90
2023/10/18 07:01:42;;;;;;;;;;;;;;;5.62;100.00;100790.03;5089634;28;20002;-90
2023/10/18 07:04:27;;;;;;;;;;;;;;;5.64;100.00;100791.88;5089441;28;19973;-91
2023/10/18 07:06:52;;;;;;;;;;;;;;;5.66;100.00;100782.50;5089538;28;19916;-91
2023/10/18 07:09:26;;;;;;;;;;;;;;;5.71;100.00;100777.53;5072684;28;19973;-90
2023/10/18 07:12:00;;;;;;;;;;;;;;;5.72;100.00;100781.84;5072488;28;19916;-90
2023/10/18 07:14:30;;;;;;;;;;;;;;;5.76;100.00;100773.41;5093052;28;20446;-90
2023/10/18 07:16:56;;;;;;;;;;;;;;;5.83;99.83;100772.00;5080442;28;20022;-90
2023/10/18 07:19:33;;;;;;;;;;;;;;;5.83;100.00;100769.41;5077109;28;20064;-91
2023/10/18 07:21:58;;;;;;;;;;;;;;;5.87;99.80;100759.25;5077076;28;19916;-91
2023/10/18 07:24:34;;;;;;;;;;;;;;;5.86;100.00;100754.00;5094864;28;20003;-90
2023/10/18 07:26:59;;;;;;;;;;;;;;;5.95;99.61;100751.78;5094707;28;19924;-91
2023/10/18 07:29:27;;;;;;;;;;;;;;;5.92;100.00;100749.97;5093502;28;19912;-91
2023/10/18 07:31:53;;;;;;;;;;;;;;;6.02;100.00;100740.91;5093490;28;19919;-91
2023/10/18 07:34:19;;;;;;;;;;;;;;;6.02;99.29;100748.66;5057378;28;19925;-90
2023/10/18 07:36:45;;;;;;;;;;;;;;;6.04;99.36;100736.69;5074145;28;19938;-91
2023/10/18 07:39:11;;;;;;;;;;;;;;;6.05;99.92;100730.72;5074295;28;19912;-91
2023/10/18 07:41:36;;;;;;;;;;;;;;;6.13;99.07;100735.31;5056642;28;19913;-91
2023/10/18 07:44:05;;;;;;;;;;;;;;;6.12;99.48;100728.34;5056437;28;19912;-92
2023/10/18 07:46:34;;;;;;;;;;;;;;;6.16;99.24;100733.72;5074185;28;19981;-90
2023/10/18 07:49:04;;;;;;;;;;;;;;;6.21;99.13;100720.94;5053632;28;20003;-91
2023/10/18 07:51:32;;;;;;;;;;;;;;;6.25;98.96;100725.41;5073936;28;19916;-90
2023/10/18 07:53:59;;;;;;;;;;;;;;;6.26;98.80;100719.44;5055966;28;19920;-91
2023/10/18 07:56:29;;;;;;;;;;;;;;;6.36;98.28;100721.56;5056079;28;19912;-91
2023/10/18 07:58:55;;;;;;;;;;;;;;;6.37;98.61;100706.91;5056132;28;19938;-91
2023/10/18 08:04:05;;;;;;;;;;;;;;;6.42;97.80;100715.72;5074400;28;19999;-90
2023/10/18 08:06:33;;;;;;;;;;;;;;;6.48;98.38;100708.19;5055762;28;19999;-91
2023/10/18 08:09:03;;;;;;;;;;;;;;;6.52;97.91;100704.03;5055991;28;19913;-91
2023/10/18 08:11:32;;;;;;;;;;;;;;;6.58;98.11;100706.84;5059594;28;19964;-89
2023/10/18 08:13:57;;;;;;;;;;;;;;;6.63;97.92;100707.88;5055336;28;19920;-90
2023/10/18 08:16:27;;;;;;;;;;;;;;;6.70;97.86;100702.09;5055534;28;20550;-90
2023/10/18 08:18:52;;;;;;;;;;;;;;;6.81;97.69;100710.28;5073597;28;19912;-90
2023/10/18 08:21:40;;;;;;;;;;;;;;;6.87;97.34;100707.91;5088972;28;19919;-89
2023/10/18 08:24:08;;;;;;;;;;;;;;;6.96;96.83;100702.19;5055212;28;19987;-89
2023/10/18 08:26:45;;;;;;;;;;;;;;;7.09;96.66;100701.78;5054038;28;19916;-90
2023/10/18 08:29:11;;;;;;;;;;;;;;;7.13;96.09;100690.69;5073395;28;19951;-90
2023/10/18 08:31:36;;;;;;;;;;;;;;;7.16;95.17;100702.03;5073213;28;20001;-90
2023/10/18 08:34:20;;;;;;;;;;;;;;;7.16;95.91;100697.72;5072002;28;20297;-89
2023/10/18 08:36:45;;;;;;;;;;;;;;;7.23;94.49;100694.50;5074965;28;19967;-90
2023/10/18 08:39:10;;;;;;;;;;;;;;;7.21;95.51;100679.72;5069793;28;19975;-90
2023/10/18 08:41:44;;;;;;;;;;;;;;;7.23;96.12;100678.94;5069598;28;19935;-90
2023/10/18 08:44:16;;;;;;;;;;;;;;;7.28;95.93;100672.19;5075080;28;19994;-90
2023/10/18 08:46:43;;;;;;;;;;;;;;;7.34;96.04;100658.56;5074461;28;20507;-90
2023/10/18 08:49:09;;;;;;;;;;;;;;;7.33;96.03;100664.59;5063989;28;20011;-90
2023/10/18 08:51:36;;;;;;;;;;;;;;;7.39;96.07;100670.00;5054743;28;19920;-90
2023/10/18 08:54:01;;;;;;;;;;;;;;;7.45;95.84;100666.72;5073207;28;20003;-90
2023/10/18 08:56:32;;;;;;;;;;;;;;;7.46;95.54;100655.53;5062628;28;20061;-90
2023/10/18 08:58:58;;;;;;;;;;;;;;;7.53;95.98;100651.41;5064125;28;19916;-89
2023/10/18 09:01:24;;;;;;;;;;;;;;;7.53;96.48;100657.50;5062786;28;21275;-90
2023/10/18 09:03:50;;;;;;;;;;;;;;;7.62;95.58;100652.59;5088131;28;19924;-89
2023/10/18 09:06:30;;;;;;;;;;;;;;;7.71;95.29;100654.59;5063591;28;19955;-90
2023/10/18 09:09:07;;;;;;;;;;;;;;;7.74;96.08;100643.47;5074255;28;19919;-90
2023/10/18 09:11:36;;;;;;;;;;;;;;;7.81;96.25;100641.09;5091349;28;20003;-90
2023/10/18 09:14:07;;;;;;;;;;;;;;;7.89;95.63;100640.44;5073705;28;20322;-89
2023/10/18 09:16:37;;;;;;;;;;;;;;;7.95;95.96;100630.25;5070760;28;19919;-90
2023/10/18 09:19:02;;;;;;;;;;;;;;;8.04;95.69;100630.56;5066889;28;19912;-90
2023/10/18 09:21:36;;;;;;;;;;;;;;;8.14;95.24;100624.81;5043171;28;19940;-90
2023/10/18 09:24:02;;;;;;;;;;;;;;;8.17;95.03;100617.13;5068044;28;19920;-89
2023/10/18 09:26:46;;;;;;;;;;;;;;;8.27;92.61;100619.97;5071326;28;20415;-90
2023/10/18 09:29:11;;;;;;;;;;;;;;;8.32;94.28;100608.00;5068634;28;19920;-89
2023/10/18 09:32:02;;;;;;;;;;;;;;;8.38;92.11;100603.00;5066693;28;19966;-96
2023/10/18 09:34:53;;;;;;;;;;;;;;;8.42;93.18;100612.63;5048010;28;19929;-96
2023/10/18 09:37:27;;;;;;;;;;;;;;;8.50;94.46;100610.28;5040530;28;19976;-96
2023/10/18 09:39:56;;;;;;;;;;;;;;;8.60;91.39;100601.03;5068864;28;19926;-96
2023/10/18 09:42:21;;;;;;;;;;;;;;;8.66;92.41;100598.59;5054281;28;19924;-96
2023/10/18 09:44:47;;;;;;;;;;;;;;;8.72;93.13;100585.78;5055367;28;19942;-96
2023/10/18 09:47:12;;;;;;;;;;;;;;;8.85;93.10;100590.47;5070812;28;20279;-96
2023/10/18 09:49:41;;;;;;;;;;;;;;;8.87;92.57;100580.97;5046607;28;19927;-96
2023/10/18 09:52:08;;;;;;;;;;;;;;;9.00;91.26;100577.00;5049772;28;19913;-96
2023/10/18 09:54:36;;;;;;;;;;;;;;;9.01;92.42;100562.28;5052333;28;19980;-96
2023/10/18 09:57:01;;;;;;;;;;;;;;;9.06;92.99;100560.69;5037025;28;19913;-96
2023/10/18 09:59:31;;;;;;;;;;;;;;;9.14;91.71;100553.06;5065462;28;19921;-96
2023/10/18 10:02:00;;;;;;;;;;;;;;;9.16;93.06;100554.00;5068229;28;19919;-96
2023/10/18 10:04:32;;;;;;;;;;;;;;;9.22;91.94;100547.25;5048436;28;19913;-96
2023/10/18 10:07:27;;;;;;;;;;;;;;;9.33;90.80;100536.22;5064326;28;19984;-96
2023/10/18 10:09:46;;;;;;;;;;;;;;;9.39;90.44;100545.00;5050039;28;19916;-96
2023/10/18 10:12:14;;;;;;;;;;;;;;;9.54;87.24;100530.59;5048816;28;19913;-96
2023/10/18 10:14:39;;;;;;;;;;;;;;;9.57;90.71;100528.06;5063361;28;19952;-96
2023/10/18 10:17:07;;;;;;;;;;;;;;;9.70;90.29;100513.63;5048671;28;19913;-96
2023/10/18 10:19:35;;;;;;;;;;;;;;;9.80;90.67;100514.69;5060915;28;19913;-96
2023/10/18 10:22:07;;;;;;;;;;;;;;;9.94;90.04;100515.00;5056190;28;19918;-96
2023/10/18 10:24:45;;;;;;;;;;;;;;;10.07;88.94;100499.66;5062720;28;19912;-96
2023/10/18 10:30:03;;;;;;;;;;;;;;;10.23;89.70;100482.59;5064706;28;19939;-96
2023/10/18 10:32:29;;;;;;;;;;;;;;;10.32;88.40;100470.63;5084993;28;20019;-96
2023/10/18 10:35:10;;;;;;;;;;;;;;;10.42;86.96;100465.63;5044431;28;19936;-96
2023/10/18 10:37:45;;;;;;;;;;;;;;;10.46;88.41;100471.78;5044080;28;19905;-96
2023/10/18 10:40:19;;;;;;;;;;;;;;;10.47;89.03;100463.13;5059405;28;19995;-96
2023/10/18 10:42:48;;;;;;;;;;;;;;;10.54;89.82;100457.16;5072758;28;19982;-96
2023/10/18 10:45:38;;;;;;;;;;;;;;;10.68;89.07;100465.22;5082746;28;19917;-96
2023/10/18 10:48:15;;;;;;;;;;;;;;;10.87;88.24;100458.56;5046400;28;19913;-96
2023/10/18 10:50:53;;;;;;;;;;;;;;;10.99;89.03;100452.66;5101172;28;19924;-96
2023/10/18 10:53:34;;;;;;;;;;;;;;;11.10;88.38;100452.84;5067573;28;19934;-96
2023/10/18 10:56:18;;;;;;;;;;;;;;;11.19;87.70;100447.75;5066731;28;19912;-96
2023/10/18 10:59:03;;;;;;;;;;;;;;;11.30;87.41;100443.56;5072671;28;19912;-96
2023/10/18 11:01:43;;;;;;;;;;;;;;;11.43;84.95;100435.94;5054545;28;19920;-96
2023/10/18 11:04:11;;;;;;;;;;;;;;;11.48;85.75;100429.03;5042844;28;19984;-96
2023/10/18 11:06:42;;;;;;;;;;;;;;;11.47;84.83;100420.34;5043114;28;19913;-96
2023/10/18 11:09:08;;;;;;;;;;;;;;;11.52;87.29;100409.94;5052360;28;19913;-96
2023/10/18 11:11:34;;;;;;;;;;;;;;;11.66;85.32;100405.78;5060808;28;19920;-96
2023/10/18 11:14:01;;;;;;;;;;;;;;;11.76;85.28;100393.72;5075357;28;20271;-95
2023/10/18 11:16:29;;;;;;;;;;;;;;;11.80;85.97;100392.00;5057494;28;19916;-96
2023/10/18 11:18:59;;;;;;;;;;;;;;;11.91;85.57;100392.13;5074626;28;19999;-96
2023/10/18 11:21:24;;;;;;;;;;;;;;;11.96;81.89;100383.53;5073227;28;20443;-95
2023/10/18 11:23:57;;;;;;;;;;;;;;;12.08;82.64;100376.66;5056553;28;19912;-96
2023/10/18 11:26:26;;;;;;;;;;;;;;;12.16;82.04;100381.09;5077123;28;19920;-96
2023/10/18 11:28:59;;;;;;;;;;;;;;;12.24;81.40;100368.13;5036883;28;19913;-96
2023/10/18 11:31:28;;;;;;;;;;;;;;;12.31;79.69;100367.31;5050079;28;19927;-96
2023/10/18 11:36:19;;;;;;;;;;;;;;;12.49;81.01;100350.03;5094270;28;19912;-94
2023/10/18 11:39:33;;;;;;;;;;;;;;;12.55;77.53;100339.63;5076512;28;19912;-96
2023/10/18 11:41:36;;;;;;;;;;;;;;;12.57;80.96;100350.97;5075436;28;19916;-95
2023/10/18 11:44:07;;;;;;;;;;;;;;;12.65;80.71;100349.28;5093844;28;19912;-96
2023/10/18 11:46:56;;;;;;;;;;;;;;;12.70;77.97;100336.22;5093910;28;19919;-96
2023/10/18 11:49:27;;;;;;;;;;;;;;;12.69;77.33;100337.97;5078186;28;19970;-96
2023/10/18 11:51:53;;;;;;;;;;;;;;;12.76;80.75;100331.06;5077138;28;19912;-96
2023/10/18 11:54:29;;;;;;;;;;;;;;;12.92;79.56;100316.34;5076508;28;19916;-96
2023/10/18 11:56:56;;;;;;;;;;;;;;;13.10;79.92;100306.84;5076017;28;19920;-96
2023/10/18 11:59:22;;;;;;;;;;;;;;;13.13;80.66;100299.88;5076002;28;19920;-96
2023/10/18 12:01:53;;;;;;;;;;;;;;;13.22;77.59;100296.41;5079212;28;20454;-96
2023/10/18 12:04:27;;;;;;;;;;;;;;;13.30;78.39;100291.22;5079300;28;19919;-96
2023/10/18 12:06:52;;;;;;;;;;;;;;;13.26;76.23;100289.47;5079275;28;19958;-96
2023/10/18 12:11:52;;;;;;;;;;;;;;;13.31;79.58;100277.25;5097300;28;19951;-96
2023/10/18 12:14:18;;;;;;;;;;;;;;;13.44;79.39;100270.34;5079583;28;20381;-96
2023/10/18 12:16:43;;;;;;;;;;;;;;;13.51;78.31;100273.00;5096379;28;19918;-96
2023/10/18 12:19:10;;;;;;;;;;;;;;;13.59;78.20;100257.31;5079472;28;19916;-96
2023/10/18 12:21:36;;;;;;;;;;;;;;;13.60;77.42;100258.16;5097144;28;19912;-95
2023/10/18 12:24:04;;;;;;;;;;;;;;;13.65;77.52;100241.59;5079411;28;19943;-96
2023/10/18 12:26:29;;;;;;;;;;;;;;;13.65;75.92;100243.34;5079457;28;19912;-96
2023/10/18 12:28:58;;;;;;;;;;;;;;;13.65;76.07;100243.34;5097520;28;20356;-96
2023/10/18 12:31:29;;;;;;;;;;;;;;;13.69;77.44;100242.50;5096500;28;20341;-96
2023/10/18 12:34:00;;;;;;;;;;;;;;;13.74;77.95;100240.72;5078527;28;19920;-96
2023/10/18 12:36:38;;;;;;;;;;;;;;;13.77;75.28;100234.63;5060317;28;19920;-96
2023/10/18 12:39:09;;;;;;;;;;;;;;;13.75;76.34;100234.63;5058829;28;19955;-96
2023/10/18 12:41:41;;;;;;;;;;;;;;;13.76;73.84;100225.03;5078693;28;19956;-96
2023/10/18 12:44:17;;;;;;;;;;;;;;;13.77;73.57;100208.44;5079167;28;19912;-96
2023/10/18 12:46:43;;;;;;;;;;;;;;;13.87;76.42;100207.56;5078856;28;20045;-96
2023/10/18 12:49:11;;;;;;;;;;;;;;;13.92;76.24;100197.97;5078967;28;19953;-96
2023/10/18 12:51:42;;;;;;;;;;;;;;;13.98;75.97;100190.09;5078693;28;20018;-96
2023/10/18 12:54:19;;;;;;;;;;;;;;;14.02;76.04;100178.75;5096760;28;19912;-96
2023/10/18 12:56:56;;;;;;;;;;;;;;;14.07;74.88;100168.28;5095383;28;20004;-96
2023/10/18 12:59:24;;;;;;;;;;;;;;;14.01;75.62;100163.91;5079156;28;19916;-96
2023/10/18 13:01:50;;;;;;;;;;;;;;;14.07;72.33;100148.16;5062554;28;19958;-96
2023/10/18 13:04:18;;;;;;;;;;;;;;;14.07;73.97;100145.56;5072682;28;19916;-96
2023/10/18 13:06:44;;;;;;;;;;;;;;;14.04;74.40;100140.31;5072499;28;19913;-96
2023/10/18 13:14:09;;;;;;;;;;;;;;;14.08;77.57;100115.88;5084845;28;19920;-96
2023/10/18 13:16:34;;;;;;;;;;;;;;;14.10;74.43;100118.47;5085320;28;20198;-96
2023/10/18 13:18:59;;;;;;;;;;;;;;;14.05;72.30;100121.13;5069343;28;19913;-96
2023/10/18 13:21:27;;;;;;;;;;;;;;;13.99;73.94;100099.28;5074996;28;19912;-96
2023/10/18 13:23:56;;;;;;;;;;;;;;;13.98;75.50;100093.19;5061093;28;19923;-96